Time;durP1;ratioP1;P1;durP2;ratioP2;P2;SDS_P1;SDS_P2;PMS_P1;PMS_P2;Temp;Humidity;BMP_temperature;BMP_pressure;BME280_temperature;BME280_humidity;BME280_pressure;Samples;Min_cycle;Max_cycle;Signal;HPM_P1;HPM_P2
2023/04/19 00:00:46;;;;;;;19.17;13.15;;;;;;;;;;5052872;28;20075;-67
2023/04/19 00:03:14;;;;;;;21.45;13.68;;;;;;;;;;5053896;28;20053;-67
2023/04/19 00:05:41;;;;;;;17.73;12.68;;;;;;;;;;5056967;28;20108;-67
2023/04/19 00:08:08;;;;;;;16.00;11.45;;;;;;;;;;5056755;28;20383;-67
2023/04/19 00:10:34;;;;;;;17.83;12.90;;;;;;;;;;5056829;28;20033;-67
2023/04/19 00:13:00;;;;;;;18.17;11.98;;;11.30;99.90;;;;;;5056770;28;20067;-67
2023/04/19 00:15:26;;;;;;;18.65;11.90;;;11.30;99.90;;;;;;5056961;28;20065;-67
2023/04/19 00:17:52;;;;;;;17.27;11.32;;;11.30;99.90;;;;;;5056874;28;20024;-67
2023/04/19 00:20:17;;;;;;;15.57;10.98;;;11.20;99.90;;;;;;5056644;28;20033;-67
2023/04/19 00:22:43;;;;;;;19.60;11.82;;;11.30;99.90;;;;;;5056605;28;20029;-67
2023/04/19 00:25:08;;;;;;;15.57;11.10;;;11.20;99.90;;;;;;5056241;28;20057;-67
2023/04/19 00:27:34;;;;;;;15.60;11.32;;;11.20;99.90;;;;;;5056791;28;20071;-67
2023/04/19 00:30:00;;;;;;;14.98;10.63;;;11.20;99.90;;;;;;5056486;28;20542;-67
2023/04/19 00:32:26;;;;;;;16.23;9.43;;;11.20;99.90;;;;;;5056673;28;20033;-67
2023/04/19 00:34:51;;;;;;;14.10;10.18;;;11.30;99.90;;;;;;5056615;28;20352;-67
2023/04/19 00:37:17;;;;;;;14.00;9.85;;;11.20;99.90;;;;;;5056403;28;20075;-67
2023/04/19 00:39:43;;;;;;;10.73;8.98;;;11.20;99.90;;;;;;5056409;28;20116;-67
2023/04/19 00:42:08;;;;;;;12.65;8.95;;;11.20;99.90;;;;;;5056383;28;20033;-67
2023/04/19 00:44:34;;;;;;;14.02;9.50;;;11.10;99.90;;;;;;5056395;28;20112;-67
2023/04/19 00:47:00;;;;;;;13.75;8.35;;;11.10;99.90;;;;;;5055903;28;20017;-67
2023/04/19 00:49:26;;;;;;;11.52;8.93;;;11.10;99.90;;;;;;5056104;28;20479;-67
2023/04/19 00:51:52;;;;;;;11.93;8.85;;;11.10;99.90;;;;;;5055747;28;20466;-67
2023/04/19 00:54:19;;;;;;;12.45;8.85;;;11.10;99.90;;;;;;5056243;28;20033;-67
2023/04/19 00:56:44;;;;;;;14.80;9.23;;;11.10;99.90;;;;;;5055201;28;20056;-67
2023/04/19 00:59:11;;;;;;;10.75;8.88;;;11.10;99.90;;;;;;5055672;28;20379;-67
2023/04/19 01:01:37;;;;;;;11.13;8.98;;;11.00;99.90;;;;;;5055639;28;20427;-67
2023/04/19 01:04:04;;;;;;;13.48;9.18;;;11.10;99.90;;;;;;5055546;28;20024;-67
2023/04/19 01:06:30;;;;;;;13.52;9.10;;;11.00;99.90;;;;;;5055613;28;20029;-67
2023/04/19 01:08:56;;;;;;;11.77;8.50;;;11.00;99.90;;;;;;5055701;28;20028;-67
2023/04/19 01:11:23;;;;;;;13.30;7.93;;;11.00;99.90;;;;;;5055619;28;20028;-67
2023/04/19 01:13:49;;;;;;;11.65;8.52;;;11.00;99.90;;;;;;5055687;28;20020;-67
2023/04/19 01:16:14;;;;;;;14.85;8.80;;;10.90;99.90;;;;;;5055316;28;20141;-67
2023/04/19 01:18:40;;;;;;;10.60;7.50;;;10.90;99.90;;;;;;5055703;28;20040;-67
2023/04/19 01:21:07;;;;;;;12.50;7.90;;;10.90;99.90;;;;;;5055222;28;20036;-67
2023/04/19 01:23:33;;;;;;;11.85;7.93;;;10.90;99.90;;;;;;5055251;28;20064;-67
2023/04/19 01:26:00;;;;;;;14.27;8.75;;;10.80;99.90;;;;;;5055465;28;20056;-67
2023/04/19 01:28:26;;;;;;;10.68;7.97;;;10.80;99.90;;;;;;5055134;28;20025;-67
2023/04/19 01:30:52;;;;;;;10.70;7.97;;;10.80;99.90;;;;;;5055586;28;20033;-67
2023/04/19 01:33:19;;;;;;;12.88;8.45;;;10.80;99.90;;;;;;5055318;28;20017;-67
2023/04/19 01:35:45;;;;;;;12.02;7.72;;;10.80;99.90;;;;;;5054924;28;20108;-67
2023/04/19 01:38:11;;;;;;;11.10;7.07;;;10.80;99.90;;;;;;5055162;28;20017;-67
2023/04/19 01:40:36;;;;;;;9.55;7.20;;;10.70;99.90;;;;;;5054839;28;20380;-67
2023/04/19 01:43:02;;;;;;;10.95;7.78;;;10.70;99.90;;;;;;5055272;28;20463;-67
2023/04/19 01:45:27;;;;;;;10.60;7.35;;;10.70;99.90;;;;;;5055302;28;20047;-67
2023/04/19 01:47:54;;;;;;;12.40;7.97;;;10.70;99.90;;;;;;5055224;28;20025;-67
2023/04/19 01:50:20;;;;;;;12.00;7.47;;;10.60;89.90;;;;;;5054523;28;20112;-67
2023/04/19 01:52:47;;;;;;;9.63;6.70;;;;;;;;;;5054609;28;20120;-67
2023/04/19 01:55:14;;;;;;;12.27;7.60;;;;;;;;;;5054516;28;20083;-67
2023/04/19 01:57:40;;;;;;;9.50;7.38;;;;;;;;;;5054804;28;20513;-67
2023/04/19 02:00:08;;;;;;;8.43;6.70;;;;;;;;;;5054345;28;20064;-67
2023/04/19 02:02:37;;;;;;;10.32;7.05;;;10.50;99.90;;;;;;5054731;28;20418;-67
2023/04/19 02:05:04;;;;;;;8.85;6.72;;;;;;;;;;5054943;28;20051;-67
2023/04/19 02:07:29;;;;;;;9.30;7.05;;;10.50;99.90;;;;;;5054360;28;20075;-67
2023/04/19 02:09:55;;;;;;;10.02;6.22;;;10.50;99.90;;;;;;5054858;28;20060;-67
2023/04/19 02:12:20;;;;;;;9.75;6.72;;;10.50;99.90;;;;;;5054573;28;20108;-67
2023/04/19 02:14:46;;;;;;;12.27;6.93;;;10.50;99.90;;;;;;5053850;28;20029;-67
2023/04/19 02:17:12;;;;;;;10.23;6.15;;;10.40;99.90;;;;;;5054261;28;20028;-67
2023/04/19 02:19:37;;;;;;;8.85;6.97;;;10.40;99.90;;;;;;5054104;28;20352;-67
2023/04/19 02:22:03;;;;;;;10.60;6.70;;;10.40;99.90;;;;;;5054598;28;20033;-67
2023/04/19 02:24:28;;;;;;;9.80;7.22;;;10.40;99.90;;;;;;5054604;28;20033;-67
2023/04/19 02:26:54;;;;;;;9.38;6.25;;;10.40;99.90;;;;;;5054119;28;20028;-67
2023/04/19 02:29:19;;;;;;;10.38;7.15;;;10.30;99.90;;;;;;5054568;28;20041;-67
2023/04/19 02:31:45;;;;;;;10.07;7.18;;;10.40;99.90;;;;;;5053987;28;20029;-67
2023/04/19 02:34:11;;;;;;;11.32;7.47;;;10.30;99.90;;;;;;5054390;28;20029;-67
2023/04/19 02:36:36;;;;;;;9.63;7.13;;;10.20;99.90;;;;;;5054413;28;20115;-67
2023/04/19 02:39:04;;;;;;;13.02;7.97;;;10.20;99.90;;;;;;5054146;28;20048;-67
2023/04/19 02:41:29;;;;;;;11.75;7.60;;;10.20;99.90;;;;;;5054019;28;20025;-67
2023/04/19 02:43:55;;;;;;;11.50;7.05;;;10.10;99.90;;;;;;5054043;28;20036;-67
2023/04/19 02:46:20;;;;;;;11.23;6.85;;;10.10;99.90;;;;;;5054010;28;20379;-66
2023/04/19 02:48:46;;;;;;;11.82;8.02;;;10.10;99.90;;;;;;5053531;28;20024;-66
2023/04/19 02:51:16;;;;;;;11.00;7.53;;;10.00;99.90;;;;;;5054142;28;20029;-67
2023/04/19 02:53:41;;;;;;;9.82;7.60;;;10.00;99.90;;;;;;5053532;28;20029;-67
2023/04/19 02:56:07;;;;;;;13.88;8.32;;;9.90;99.90;;;;;;5053133;28;20051;-66
2023/04/19 02:58:34;;;;;;;11.45;7.90;;;;;;;;;;5054118;28;20398;-67
2023/04/19 03:01:01;;;;;;;10.70;7.93;;;;;;;;;;5053567;28;20098;-66
2023/04/19 03:03:28;;;;;;;12.65;8.15;;;;;;;;;;5053863;28;20414;-67
2023/04/19 03:05:54;;;;;;;11.75;7.78;;;;;;;;;;5053715;28;20021;-66
2023/04/19 03:08:20;;;;;;;13.18;8.30;;;9.80;99.90;;;;;;5054040;28;20422;-67
2023/04/19 03:10:45;;;;;;;11.20;7.28;;;9.80;99.90;;;;;;5054059;28;20037;-67
2023/04/19 03:13:11;;;;;;;11.18;7.65;;;9.80;99.90;;;;;;5053462;28;20078;-67
2023/04/19 03:15:36;;;;;;;10.10;8.00;;;9.80;99.90;;;;;;5053633;28;20029;-67
2023/04/19 03:18:02;;;;;;;12.65;8.07;;;9.80;99.90;;;;;;5053720;28;20463;-67
2023/04/19 03:20:27;;;;;;;10.48;8.05;;;9.70;99.90;;;;;;5053114;28;20025;-67
2023/04/19 03:22:53;;;;;;;12.70;8.13;;;9.60;99.90;;;;;;5053107;28;20059;-67
2023/04/19 03:25:18;;;;;;;11.88;8.15;;;9.60;99.90;;;;;;5053870;28;20075;-67
2023/04/19 03:27:44;;;;;;;10.75;8.13;;;9.60;99.90;;;;;;5053530;28;20119;-67
2023/04/19 03:30:11;;;;;;;15.68;8.90;;;9.60;99.90;;;;;;5053167;28;20028;-67
2023/04/19 03:32:37;;;;;;;13.45;8.45;;;9.60;99.90;;;;;;5052772;28;20025;-67
2023/04/19 03:35:02;;;;;;;12.20;8.13;;;9.50;99.90;;;;;;5053118;28;20043;-67
2023/04/19 03:37:28;;;;;;;12.20;8.43;;;9.50;99.90;;;;;;5053535;28;20047;-67
2023/04/19 03:39:54;;;;;;;11.43;8.38;;;9.40;99.90;;;;;;5056237;28;20436;-66
2023/04/19 03:42:19;;;;;;;9.82;8.02;;;9.40;99.90;;;;;;5057060;28;20042;-67
2023/04/19 03:44:45;;;;;;;11.65;8.60;;;9.40;1.00;;;;;;5057555;28;20061;-67
2023/04/19 03:47:10;;;;;;;14.57;8.85;;;9.50;1.00;;;;;;5057443;28;20033;-67
2023/04/19 03:49:36;;;;;;;11.43;8.05;;;9.40;1.00;;;;;;5057310;28;20088;-67
2023/04/19 03:52:01;;;;;;;11.02;8.30;;;9.40;1.00;;;;;;5056877;28;20078;-67
2023/04/19 03:54:27;;;;;;;15.95;9.02;;;9.40;1.00;;;;;;5056870;28;20487;-67
2023/04/19 03:56:52;;;;;;;12.27;8.65;;;9.40;1.00;;;;;;5056305;28;20506;-67
2023/04/19 03:59:18;;;;;;;14.80;8.80;;;9.40;1.00;;;;;;5057017;28;20032;-67
2023/04/19 04:01:43;;;;;;;13.18;9.20;;;9.30;1.00;;;;;;5057229;28;20036;-67
2023/04/19 04:04:10;;;;;;;11.82;8.70;;;9.20;1.00;;;;;;5057015;28;20021;-67
2023/04/19 04:06:36;;;;;;;12.15;9.07;;;9.20;1.00;;;;;;5056853;28;20470;-67
2023/04/19 04:09:01;;;;;;;12.90;8.93;;;9.20;1.00;;;;;;5056579;28;20035;-67
2023/04/19 04:11:27;;;;;;;14.00;8.48;;;9.20;1.00;;;;;;5056613;28;20355;-67
2023/04/19 04:13:54;;;;;;;14.95;9.13;;;9.10;99.90;;;;;;5056602;28;20025;-67
2023/04/19 04:16:20;;;;;;;15.05;9.07;;;9.10;99.90;;;;;;5056577;28;20482;-67
2023/04/19 04:18:45;;;;;;;15.23;9.43;;;9.10;99.90;;;;;;5056190;28;20078;-66
2023/04/19 04:21:11;;;;;;;15.38;9.15;;;9.00;99.90;;;;;;5056659;28;20025;-66
2023/04/19 04:23:37;;;;;;;17.13;8.82;;;9.00;99.90;;;;;;5056824;28;20079;-67
2023/04/19 04:26:04;;;;;;;13.93;9.55;;;9.00;99.90;;;;;;5056402;28;20029;-66
2023/04/19 04:28:30;;;;;;;16.20;8.98;;;9.00;99.90;;;;;;5056723;28;20466;-66
2023/04/19 04:30:56;;;;;;;16.33;8.88;;;9.00;99.90;;;;;;5056717;28;20059;-66
2023/04/19 04:33:25;;;;;;;14.70;8.68;;;;;;;;;;5056404;28;20065;-67
2023/04/19 04:35:52;;;;;;;15.13;8.82;;;;;;;;;;5056120;28;20062;-66
2023/04/19 04:38:26;;;;;;;14.32;8.27;;;;;;;;;;5056371;28;20029;-67
2023/04/19 04:40:52;;;;;;;15.05;8.52;;;;;;;;;;5055788;28;20032;-66
2023/04/19 04:43:20;;;;;;;14.02;8.43;;;;;;;;;;5056202;28;20036;-66
2023/04/19 04:45:46;;;;;;;13.63;8.45;;;;;;;;;;5056123;28;20481;-67
2023/04/19 04:48:12;;;;;;;12.68;7.47;;;;;;;;;;5055730;28;20029;-66
2023/04/19 04:50:38;;;;;;;14.88;7.45;;;;;;;;;;5055767;28;20032;-67
2023/04/19 04:53:04;;;;;;;11.65;7.53;;;;;;;;;;5055579;28;20035;-67
2023/04/19 04:55:30;;;;;;;11.88;7.55;;;8.70;99.90;;;;;;5055502;28;20111;-66
2023/04/19 04:57:56;;;;;;;14.05;7.53;;;8.60;99.90;;;;;;5056177;28;20087;-66
2023/04/19 05:00:22;;;;;;;11.98;6.25;;;8.50;99.90;;;;;;5055900;28;20025;-66
2023/04/19 05:02:48;;;;;;;11.40;6.03;;;8.50;99.90;;;;;;5056129;28;20048;-66
2023/04/19 05:05:13;;;;;;;11.52;6.18;;;8.50;62.60;;;;;;5055292;28;20386;-66
2023/04/19 05:07:39;;;;;;;11.30;6.35;;;8.50;1.00;;;;;;5055847;28;20025;-67
2023/04/19 05:10:06;;;;;;;9.43;6.25;;;8.40;99.90;;;;;;5055982;28;20021;-66
2023/04/19 05:12:31;;;;;;;11.75;6.13;;;8.50;99.90;;;;;;5055893;28;20024;-66
2023/04/19 05:14:57;;;;;;;10.38;5.32;;;8.40;99.90;;;;;;5055580;28;20158;-66
2023/04/19 05:17:23;;;;;;;9.35;5.63;;;8.50;99.90;;;;;;5055387;28;20029;-66
2023/04/19 05:19:48;;;;;;;11.05;5.90;;;8.50;99.90;;;;;;5055595;28;20033;-67
2023/04/19 05:22:14;;;;;;;8.30;5.65;;;8.60;1.00;;;;;;5055218;28;20560;-67
2023/04/19 05:24:40;;;;;;;7.32;5.45;;;8.60;62.10;;;;;;5054652;28;20083;-67
2023/04/19 05:27:05;;;;;;;10.10;5.50;;;8.50;73.40;;;;;;5055402;28;20120;-67
2023/04/19 05:29:31;;;;;;;9.88;5.38;;;8.50;1.00;;;;;;5055563;28;20033;-67
2023/04/19 05:31:57;;;;;;;17.25;6.20;;;8.50;1.00;;;;;;5055375;28;20037;-66
2023/04/19 05:34:23;;;;;;;9.13;5.18;;;8.50;1.00;;;;;;5055112;28;20033;-66
2023/04/19 05:36:49;;;;;;;8.68;4.95;;;8.50;99.90;;;;;;5055477;28;20378;-67
2023/04/19 05:39:14;;;;;;;11.02;5.30;;;8.40;99.90;;;;;;5054692;28;20036;-67
2023/04/19 05:41:40;;;;;;;7.95;4.97;;;8.40;99.90;;;;;;5055635;28;20032;-66
2023/04/19 05:44:06;;;;;;;9.77;5.40;;;8.40;99.90;;;;;;5054768;28;20040;-67
2023/04/19 05:46:31;;;;;;;8.80;5.50;;;8.40;99.90;;;;;;5054991;28;20024;-67
2023/04/19 05:48:57;;;;;;;8.15;5.07;;;8.40;99.90;;;;;;5053930;28;20022;-67
2023/04/19 05:51:22;;;;;;;11.15;5.93;;;8.40;99.90;;;;;;5054411;28;20483;-67
2023/04/19 05:53:48;;;;;;;11.52;5.00;;;8.50;1.00;;;;;;5054687;28;20099;-67
2023/04/19 05:56:13;;;;;;;7.22;4.78;;;8.50;99.90;;;;;;5053698;28;20045;-67
2023/04/19 05:58:39;;;;;;;8.82;5.47;;;8.40;99.90;;;;;;5053730;28;20037;-67
2023/04/19 06:01:05;;;;;;;7.38;4.72;;;8.40;99.90;;;;;;5053913;28;20518;-67
2023/04/19 06:03:32;;;;;;;8.25;4.97;;;8.50;99.90;;;;;;5054210;28;20025;-67
2023/04/19 06:05:58;;;;;;;8.43;5.30;;;8.50;99.90;;;;;;5054364;28;20021;-67
2023/04/19 06:08:23;;;;;;;7.65;4.43;;;8.60;99.90;;;;;;5053752;28;20032;-67
2023/04/19 06:10:49;;;;;;;8.95;4.65;;;8.80;99.90;;;;;;5053875;28;20111;-67
2023/04/19 06:13:15;;;;;;;9.35;4.40;;;8.80;13.80;;;;;;5054015;28;20055;-67
2023/04/19 06:15:40;;;;;;;6.53;4.63;;;8.70;1.00;;;;;;5053859;28;20459;-67
2023/04/19 06:18:09;;;;;;;11.77;4.57;;;9.00;94.70;;;;;;5053714;28;20068;-67
2023/04/19 06:20:36;;;;;;;8.30;4.70;;;9.40;1.00;;;;;;5053866;28;20086;-67
2023/04/19 06:23:02;;;;;;;8.95;5.25;;;10.00;1.00;;;;;;5053939;28;20356;-67
2023/04/19 06:25:28;;;;;;;8.73;4.57;;;;;;;;;;5053601;28;20027;-67
2023/04/19 06:27:53;;;;;;;9.02;4.95;;;11.30;1.00;;;;;;5054317;28;20421;-67
2023/04/19 06:30:19;;;;;;;7.22;4.60;;;11.80;99.90;;;;;;5054366;28;20059;-67
2023/04/19 06:32:45;;;;;;;7.32;4.25;;;12.30;1.00;;;;;;5053632;28;20486;-67
2023/04/19 06:35:10;;;;;;;8.73;4.00;;;12.50;99.90;;;;;;5054564;28;20078;-67
2023/04/19 06:37:36;;;;;;;6.68;4.47;;;12.70;99.90;;;;;;5053516;28;20037;-68
2023/04/19 06:40:04;;;;;;;5.70;4.32;;;13.30;99.90;;;;;;5049614;28;20394;-67
2023/04/19 06:42:30;;;;;;;8.95;4.07;;;;;;;;;;5039538;28;20075;-67
2023/04/19 06:44:56;;;;;;;7.22;4.30;;;;;;;;;;5047235;28;20024;-67
2023/04/19 06:47:21;;;;;;;8.73;4.35;;;13.60;1.00;;;;;;5046231;28;20040;-68
2023/04/19 06:49:47;;;;;;;7.43;4.10;;;13.30;99.90;;;;;;5047873;28;20032;-67
2023/04/19 06:52:13;;;;;;;5.80;4.10;;;12.80;99.90;;;;;;5050626;28;20387;-67
2023/04/19 06:54:38;;;;;;;10.10;4.18;;;12.10;99.90;;;;;;5048331;28;20390;-68
2023/04/19 06:57:04;;;;;;;8.23;4.82;;;12.80;99.90;;;;;;5048324;28;20049;-67
2023/04/19 06:59:31;;;;;;;6.97;3.90;;;13.70;99.90;;;;;;5044384;28;20033;-67
2023/04/19 07:01:57;;;;;;;9.27;4.15;;;13.40;99.90;;;;;;5046617;28;20029;-67
2023/04/19 07:04:23;;;;;;;6.95;4.57;;;12.60;99.90;;;;;;5041526;28;20051;-68
2023/04/19 07:06:49;;;;;;;7.18;3.90;;;12.90;99.90;;;;;;5049305;28;20107;-70
2023/04/19 07:09:14;;;;;;;9.18;4.18;;;13.90;99.90;;;;;;5041640;28;20033;-67
2023/04/19 07:11:40;;;;;;;8.82;4.03;;;14.60;99.90;;;;;;5049902;28;20033;-68
2023/04/19 07:14:05;;;;;;;4.78;3.55;;;14.50;99.90;;;;;;5039515;28;20029;-68
2023/04/19 07:16:31;;;;;;;5.97;3.72;;;13.90;99.90;;;;;;5054654;28;20033;-67
2023/04/19 07:18:57;;;;;;;6.40;3.72;;;13.70;99.90;;;;;;5057221;28;20174;-67
2023/04/19 07:21:27;;;;;;;6.10;3.80;;;14.20;99.90;;;;;;5054931;28;20033;-68
2023/04/19 07:23:53;;;;;;;4.43;3.33;;;13.50;99.90;;;;;;5036987;28;20033;-68
2023/04/19 07:26:19;;;;;;;7.03;3.70;;;13.90;99.90;;;;;;5037854;28;20055;-68
2023/04/19 07:28:44;;;;;;;5.95;3.70;;;14.10;99.90;;;;;;5037904;28;20036;-67
2023/04/19 07:31:17;;;;;;;6.43;3.00;;;14.40;99.90;;;;;;5037476;28;20451;-67
2023/04/19 07:33:44;;;;;;;4.78;3.17;;;14.20;99.90;;;;;;5037319;28;20030;-68
2023/04/19 07:36:10;;;;;;;4.13;2.75;;;12.70;99.90;;;;;;5036689;28;20079;-67
2023/04/19 07:38:35;;;;;;;5.57;3.25;;;12.30;99.90;;;;;;5037185;28;20083;-68
2023/04/19 07:41:02;;;;;;;7.13;2.85;;;12.70;99.90;;;;;;5052640;28;20041;-68
2023/04/19 07:43:29;;;;;;;5.72;3.30;;;13.30;99.90;;;;;;5057441;28;20082;-67
2023/04/19 07:45:54;;;;;;;4.28;3.30;;;13.30;99.90;;;;;;5052359;28;20450;-68
2023/04/19 07:48:20;;;;;;;11.30;3.80;;;14.60;99.90;;;;;;5057357;28;20052;-67
2023/04/19 07:50:46;;;;;;;7.35;3.88;;;15.00;96.50;;;;;;5056252;28;20033;-67
2023/04/19 07:53:11;;;;;;;11.15;3.38;;;13.50;70.10;;;;;;5056472;28;20104;-68
2023/04/19 07:55:37;;;;;;;6.22;3.10;;;13.10;91.70;;;;;;5053940;28;20057;-68
2023/04/19 07:58:02;;;;;;;5.75;2.72;;;13.30;89.00;;;;;;5045916;28;20037;-68
2023/04/19 08:00:29;;;;;;;9.43;3.17;;;13.20;74.80;;;;;;5049716;28;20125;-68
2023/04/19 08:02:56;;;;;;;5.40;2.97;;;13.50;92.60;;;;;;5045811;28;20021;-68
2023/04/19 08:05:21;;;;;;;8.25;3.35;;;13.90;90.00;;;;;;5045046;28;20395;-67
2023/04/19 08:07:47;;;;;;;6.60;3.10;;;13.70;76.90;;;;;;5042345;28;20029;-68
2023/04/19 08:10:13;;;;;;;4.32;3.28;;;13.70;43.00;;;;;;5048773;28;20030;-68
2023/04/19 08:12:39;;;;;;;5.57;3.00;;;13.30;41.00;;;;;;5045871;28;20036;-68
2023/04/19 08:15:07;;;;;;;6.72;3.83;;;12.70;36.20;;;;;;5038680;28;20040;-68
2023/04/19 08:17:33;;;;;;;6.90;3.88;;;13.30;95.00;;;;;;5042153;28;20032;-69
2023/04/19 08:19:59;;;;;;;7.60;3.55;;;13.80;93.10;;;;;;5053847;28;20107;-66
2023/04/19 08:22:24;;;;;;;7.18;3.33;;;13.50;56.30;;;;;;5043268;28;20075;-66
2023/04/19 08:24:50;;;;;;;6.00;3.50;;;14.10;31.80;;;;;;5049772;28;20025;-66
2023/04/19 08:27:17;;;;;;;5.93;3.38;;;14.10;67.30;;;;;;5036096;28;20488;-67
2023/04/19 08:29:42;;;;;;;5.47;3.20;;;14.40;23.10;;;;;;5050322;28;20033;-67
2023/04/19 08:32:08;;;;;;;4.13;2.90;;;13.80;8.20;;;;;;5055394;28;20534;-65
2023/04/19 08:34:36;;;;;;;5.90;2.78;;;13.20;19.20;;;;;;5055660;28;20441;-66
2023/04/19 08:37:02;;;;;;;8.23;3.75;;;14.70;86.50;;;;;;5043758;28;20080;-67
2023/04/19 08:39:28;;;;;;;6.55;3.78;;;14.90;54.50;;;;;;5035937;28;20044;-68
2023/04/19 08:41:56;;;;;;;5.82;3.90;;;14.90;73.70;;;;;;5049958;28;20112;-67
2023/04/19 08:44:23;;;;;;;5.90;3.40;;;14.60;74.40;;;;;;5055624;28;20025;-69
2023/04/19 08:46:49;;;;;;;5.43;2.90;;;;;;;;;;5054990;28;20044;-66
2023/04/19 08:49:19;;;;;;;7.32;3.13;;;;;;;;;;5037845;28;20109;-65
2023/04/19 08:51:45;;;;;;;6.88;3.00;;;;;;;;;;5035919;28;20427;-66
2023/04/19 08:54:11;;;;;;;4.40;3.10;;;;;;;;;;5047669;28;20021;-65
2023/04/19 08:56:37;;;;;;;6.50;3.30;;;;;;;;;;5053345;28;20388;-66
2023/04/19 08:59:03;;;;;;;6.78;3.15;;;;;;;;;;5055029;28;20505;-68
2023/04/19 09:01:29;;;;;;;4.13;3.20;;;;;;;;;;5039263;28;20034;-67
2023/04/19 09:03:55;;;;;;;3.42;2.97;;;;;;;;;;5035797;28;20026;-67
2023/04/19 09:06:21;;;;;;;4.65;2.90;;;;;;;;;;5048186;28;20059;-67
2023/04/19 09:08:50;;;;;;;5.40;2.95;;;;;;;;;;5044245;28;20518;-68
2023/04/19 09:11:16;;;;;;;4.65;2.97;;;;;;;;;;5035183;28;20025;-67
2023/04/19 09:13:43;;;;;;;5.50;3.05;;;;;;;;;;5036146;28;20033;-68
2023/04/19 09:16:22;;;;;;;8.57;3.10;;;;;;;;;;5046404;28;20384;-69
2023/04/19 09:18:58;;;;;;;6.97;3.15;;;;;;;;;;5047918;28;20030;-67
2023/04/19 09:21:28;;;;;;;3.85;2.90;;;;;;;;;;5049298;28;20028;-66
2023/04/19 09:23:54;;;;;;;4.72;3.30;;;;;;;;;;5044240;28;20032;-66
2023/04/19 09:26:20;;;;;;;4.22;3.00;;;;;;;;;;5045096;28;20419;-67
2023/04/19 09:29:06;;;;;;;4.95;3.10;;;;;;;;;;5048677;28;20025;-67
2023/04/19 09:31:34;;;;;;;6.45;3.22;;;;;;;;;;5045835;28;20533;-67
2023/04/19 09:34:17;;;;;;;5.95;3.65;;;;;;;;;;5037484;28;20406;-66
2023/04/19 09:36:43;;;;;;;5.20;3.03;;;;;;;;;;5033913;28;20053;-66
2023/04/19 09:39:09;;;;;;;5.78;3.15;;;;;;;;;;5046606;28;20490;-67
2023/04/19 09:41:50;;;;;;;5.00;2.95;;;;;;;;;;5053554;28;20437;-66
2023/04/19 09:44:16;;;;;;;6.65;3.22;;;;;;;;;;5053053;28;20074;-67
2023/04/19 09:46:44;;;;;;;5.00;3.60;;;;;;;;;;5047094;28;20029;-67
2023/04/19 09:51:51;;;;;;;9.07;4.03;;;;;;;;;;5108791;27;20446;-66
2023/04/19 09:54:19;;;;;;;10.25;3.50;;;;;;;;;;5109348;28;20397;-67
2023/04/19 09:57:11;;;;;;;4.25;3.30;;;;;;;;;;5106996;28;20042;-67
2023/04/19 09:59:51;;;;;;;8.30;3.88;;;;;;;;;;5101489;28;20023;-66
2023/04/19 10:02:23;;;;;;;8.80;4.20;;;;;;;;;;5100223;28;20020;-66
2023/04/19 10:04:52;;;;;;;6.90;3.90;;;;;;;;;;5097495;28;20087;-66
2023/04/19 10:08:03;;;;;;;4.13;3.38;;;;;;;;;;5091001;28;20058;-66
2023/04/19 10:11:17;;;;;;;5.75;3.75;;;;;;;;;;5095672;28;20028;-67
2023/04/19 10:14:32;;;;;;;6.30;3.78;;;;;;;;;;5109700;28;20070;-67
2023/04/19 10:17:43;;;;;;;7.55;3.50;;;;;;;;;;5099349;28;20028;-68
2023/04/19 10:20:56;;;;;;;7.10;3.83;;;;;;;;;;5107503;27;20047;-69
2023/04/19 10:23:57;;;;;;;5.23;3.70;;;;;;;;;;5116357;28;20059;-68
2023/04/19 10:26:30;;;;;;;6.15;3.72;;;;;;;;;;5090608;28;20271;-72
2023/04/19 10:28:57;;;;;;;7.90;4.00;;;;;;;;;;5102331;28;20039;-68
2023/04/19 10:31:25;;;;;;;6.88;4.45;;;;;;;;;;5103069;28;20023;-67
2023/04/19 10:33:51;;;;;;;6.50;4.00;;;;;;;;;;5110735;28;20067;-68
2023/04/19 10:36:18;;;;;;;7.68;4.13;;;;;;;;;;5091071;28;20035;-69
2023/04/19 10:38:46;;;;;;;8.38;4.03;;;;;;;;;;5089565;28;20055;-69
2023/04/19 10:41:13;;;;;;;8.73;4.32;;;;;;;;;;5090307;28;20485;-66
2023/04/19 10:43:40;;;;;;;7.43;4.20;;;;;;;;;;5090463;28;20028;-67
2023/04/19 10:46:08;;;;;;;7.00;4.35;;;;;;;;;;5091628;28;20027;-67
2023/04/19 10:48:36;;;;;;;7.43;4.55;;;;;;;;;;5094867;28;20119;-68
2023/04/19 10:51:18;;;;;;;6.20;4.40;;;;;;;;;;5098246;28;20195;-68
2023/04/19 10:53:55;;;;;;;6.95;4.38;;;;;;;;;;5095760;28;20055;-67
2023/04/19 10:59:20;;;;;;;7.32;4.75;;;;;;;;;;5118712;27;20379;-68
2023/04/19 11:01:47;;;;;;;5.88;4.57;;;;;;;;;;5119623;27;20370;-67
2023/04/19 11:04:15;;;;;;;7.80;4.20;;;;;;;;;;5115815;28;20097;-67
2023/04/19 11:07:00;;;;;;;8.80;4.65;;;;;;;;;;5110703;28;20119;-69
2023/04/19 11:09:30;;;;;;;9.95;4.88;;;;;;;;;;5107734;28;20058;-67
2023/04/19 11:11:58;;;;;;;6.20;4.82;;;;;;;;;;5110714;28;20031;-68
2023/04/19 11:14:25;;;;;;;6.35;4.70;;;;;;;;;;5110577;27;20077;-67
2023/04/19 11:16:51;;;;;;;9.57;5.38;;;;;;;;;;5106381;28;20061;-69
2023/04/19 11:19:17;;;;;;;6.05;3.97;;;;;;;;;;5092941;28;20578;-66
2023/04/19 11:21:45;;;;;;;7.80;4.40;;;;;;;;;;5090589;28;20046;-68
2023/04/19 11:24:12;;;;;;;6.40;3.83;;;;;;;;;;5106315;28;20485;-66
2023/04/19 11:26:38;;;;;;;7.45;4.70;;;;;;;;;;5100701;27;20034;-69
2023/04/19 11:29:05;;;;;;;7.30;4.13;;;;;;;;;;5111021;28;20039;-67
2023/04/19 11:31:32;;;;;;;7.63;4.50;;;;;;;;;;5117593;28;20019;-68
2023/04/19 11:33:59;;;;;;;6.45;3.78;;;;;;;;;;5117679;27;20068;-67
2023/04/19 11:36:25;;;;;;;5.32;4.25;;;;;;;;;;5112340;28;20076;-67
2023/04/19 11:38:52;;;;;;;9.73;4.10;;;;;;;;;;5097734;28;20031;-68
2023/04/19 11:41:18;;;;;;;10.52;4.43;;;;;;;;;;5111920;28;20532;-66
2023/04/19 11:43:47;;;;;;;7.00;4.40;;;;;;;;;;5110792;28;20092;-65
2023/04/19 11:46:21;;;;;;;9.23;4.60;;;;;;;;;;5107852;28;20028;-67
2023/04/19 11:48:51;;;;;;;6.82;4.28;;;;;;;;;;5109712;28;20019;-67
2023/04/19 11:51:18;;;;;;;5.35;3.95;;;;;;;;;;5110088;28;20398;-67
2023/04/19 11:53:44;;;;;;;4.68;4.20;;;;;;;;;;5111003;28;20496;-67
2023/04/19 11:56:10;;;;;;;7.07;4.57;;;;;;;;;;5110729;28;20024;-69
2023/04/19 11:59:01;;;;;;;8.80;4.70;;;;;;;;;;5109778;28;20044;-70
2023/04/19 12:01:33;;;;;;;7.88;4.70;;;;;;;;;;5110007;28;20016;-68
2023/04/19 12:04:05;;;;;;;6.57;3.78;;;;;;;;;;5109495;28;20031;-68
2023/04/19 12:06:35;;;;;;;6.95;3.97;;;;;;;;;;5109490;27;20062;-67
2023/04/19 12:09:09;;;;;;;6.90;3.72;;;;;;;;;;5105358;28;20123;-67
2023/04/19 12:11:48;;;;;;;5.53;4.25;;;;;;;;;;5095361;28;20024;-69
2023/04/19 12:14:21;;;;;;;7.13;3.80;;;;;;;;;;5102462;28;20047;-68
2023/04/19 12:17:03;;;;;;;5.82;3.80;;;;;;;;;;5096548;28;20488;-68
2023/04/19 12:19:36;;;;;;;6.85;4.43;;;;;;;;;;5096245;28;20024;-67
2023/04/19 12:22:10;;;;;;;7.30;4.60;;;;;;;;;;5095980;28;20127;-68
2023/04/19 12:24:38;;;;;;;5.38;3.90;;;;;;;;;;5096597;28;20382;-67
2023/04/19 12:27:08;;;;;;;5.82;3.92;;;;;;;;;;5095843;28;20020;-68
2023/04/19 12:29:39;;;;;;;7.05;4.38;;;;;;;;;;5096106;28;20028;-67
2023/04/19 12:32:06;;;;;;;8.77;4.57;;;;;;;;;;5096227;28;20020;-67
2023/04/19 12:34:34;;;;;;;6.05;3.50;;;;;;;;;;5096209;28;20056;-68
2023/04/19 12:37:05;;;;;;;5.78;3.67;;;;;;;;;;5095048;28;20032;-67
2023/04/19 12:39:31;;;;;;;5.75;3.75;;;15.40;1.00;;;;;;5075703;28;20115;-67
2023/04/19 12:41:57;;;;;;;6.75;3.70;;;15.50;1.00;;;;;;5092919;28;20056;-67
2023/04/19 12:44:26;;;;;;;4.63;3.78;;;15.30;8.00;;;;;;5075624;28;20382;-66
2023/04/19 12:46:56;;;;;;;4.65;3.50;;;15.50;13.10;;;;;;5074994;28;20021;-68
2023/04/19 12:49:21;;;;;;;6.95;3.40;;;15.60;29.50;;;;;;5075499;28;20036;-66
2023/04/19 12:51:47;;;;;;;5.65;3.00;;;15.30;1.00;;;;;;5075426;28;20039;-66
2023/04/19 12:54:14;;;;;;;4.55;3.42;;;15.30;1.00;;;;;;5075315;28;20025;-67
2023/04/19 12:56:40;;;;;;;6.53;3.67;;;15.40;1.00;;;;;;5075991;28;20103;-68
2023/04/19 12:59:06;;;;;;;8.38;3.60;;;15.30;1.00;;;;;;5073735;28;20151;-67
2023/04/19 13:01:32;;;;;;;6.93;3.30;;;15.10;37.50;;;;;;5073087;28;20485;-67
2023/04/19 13:03:57;;;;;;;6.18;3.13;;;15.00;99.90;;;;;;5073982;28;20033;-68
2023/04/19 13:06:23;;;;;;;8.70;2.97;;;15.00;99.90;;;;;;5074912;28;20070;-68
2023/04/19 13:08:48;;;;;;;6.90;3.45;;;15.10;99.90;;;;;;5074331;28;20035;-67
2023/04/19 13:11:16;;;;;;;3.92;3.15;;;15.20;99.90;;;;;;5075787;28;20033;-67
2023/04/19 13:13:42;;;;;;;7.80;3.88;;;15.00;99.90;;;;;;5073420;28;20039;-71
2023/04/19 13:16:07;;;;;;;5.60;3.42;;;14.80;99.90;;;;;;5074350;28;20040;-67
2023/04/19 13:18:33;;;;;;;5.75;3.25;;;15.00;99.90;;;;;;5073747;28;20028;-67
2023/04/19 13:20:58;;;;;;;5.05;3.80;;;15.20;85.50;;;;;;5074032;28;20032;-70
2023/04/19 13:23:24;;;;;;;5.35;3.78;;;15.30;99.90;;;;;;5073174;28;20029;-67
2023/04/19 13:25:50;;;;;;;6.60;3.60;;;15.20;98.00;;;;;;5072919;28;20021;-68
2023/04/19 13:28:15;;;;;;;8.02;3.80;;;15.00;92.20;;;;;;5073735;28;20040;-67
2023/04/19 13:30:41;;;;;;;6.22;3.95;;;14.90;90.10;;;;;;5074985;28;20421;-68